createdAt,value
2023-01-13T00:01:14.000Z,-5.53
2023-01-13T00:03:41.254Z,-5.58
2023-01-13T00:06:09.998Z,-5.62
2023-01-13T00:08:36.697Z,-5.47
2023-01-13T00:11:03.459Z,-5.47
2023-01-13T00:13:33.117Z,-5.39
2023-01-13T00:16:07.896Z,-5.41
2023-01-13T00:18:34.996Z,-5.40
2023-01-13T00:21:02.949Z,-5.54
2023-01-13T00:23:30.615Z,-5.38
2023-01-13T00:26:02.373Z,-5.43
2023-01-13T00:28:29.522Z,-5.41
2023-01-13T00:30:59.028Z,-5.39
2023-01-13T00:33:26.204Z,-5.40
2023-01-13T00:35:59.965Z,-5.60
2023-01-13T00:38:27.274Z,-5.59
2023-01-13T00:41:01.289Z,-5.71
2023-01-13T00:43:28.748Z,-5.44
2023-01-13T00:45:55.698Z,-5.60
2023-01-13T00:48:23.609Z,-5.69
2023-01-13T00:50:57.413Z,-5.68
2023-01-13T00:53:24.505Z,-5.51
2023-01-13T00:56:01.507Z,-5.31
2023-01-13T00:58:29.076Z,-5.54
2023-01-13T01:00:55.965Z,-5.33
2023-01-13T01:03:22.770Z,-5.41
2023-01-13T01:05:49.431Z,-5.33
2023-01-13T01:08:16.128Z,-5.59
2023-01-13T01:10:42.810Z,-5.43
2023-01-13T01:13:11.908Z,-5.31
2023-01-13T01:15:41.879Z,-5.35
2023-01-13T01:18:08.749Z,-5.47
2023-01-13T01:20:37.421Z,-5.51
2023-01-13T01:23:04.129Z,-5.50
2023-01-13T01:25:32.768Z,-5.48
2023-01-13T01:27:59.851Z,-5.29
2023-01-13T01:30:26.645Z,-5.31
2023-01-13T01:32:53.342Z,-5.41
2023-01-13T01:35:19.989Z,-5.50
2023-01-13T01:37:46.647Z,-5.38
2023-01-13T01:40:13.527Z,-5.27
2023-01-13T01:42:59.156Z,-5.48
2023-01-13T01:45:27.975Z,-5.68
2023-01-13T01:48:00.467Z,-5.42
2023-01-13T01:50:28.202Z,-5.32
2023-01-13T01:52:58.063Z,-5.26
2023-01-13T01:55:28.827Z,-5.21
2023-01-13T01:57:58.973Z,-5.26
2023-01-13T02:00:27.220Z,-5.29
2023-01-13T02:02:54.682Z,-5.22
2023-01-13T02:05:21.661Z,-5.31
2023-01-13T02:07:49.995Z,-5.25
2023-01-13T02:10:23.126Z,-5.15
2023-01-13T02:12:50.843Z,-5.00
2023-01-13T02:15:21.810Z,-5.11
2023-01-13T02:18:16.309Z,-5.17
2023-01-13T02:20:58.171Z,-5.09
2023-01-13T02:24:01.510Z,-5.20
2023-01-13T02:26:37.147Z,-5.18
2023-01-13T02:29:53.443Z,-5.21
2023-01-13T02:32:28.548Z,-5.38
2023-01-13T02:35:08.628Z,-5.16
2023-01-13T02:37:37.796Z,-5.09
2023-01-13T02:40:24.440Z,-5.09
2023-01-13T02:43:40.824Z,-5.29
2023-01-13T02:46:17.968Z,-5.18
2023-01-13T02:48:46.395Z,-5.08
2023-01-13T02:51:16.034Z,-5.18
2023-01-13T02:53:54.944Z,-5.17
2023-01-13T02:56:23.683Z,-5.23
2023-01-13T02:58:50.716Z,-5.24
2023-01-13T03:01:18.133Z,-5.16
2023-01-13T03:03:44.892Z,-5.13
2023-01-13T03:06:30.073Z,-5.14
2023-01-13T03:09:22.495Z,-5.14
2023-01-13T03:12:13.591Z,-5.39
2023-01-13T03:14:57.061Z,-5.46
2023-01-13T03:17:42.823Z,-5.46
2023-01-13T03:20:18.181Z,-5.49
2023-01-13T03:22:51.032Z,-5.53
2023-01-13T03:25:24.553Z,-5.59
2023-01-13T03:28:15.192Z,-5.56
2023-01-13T03:30:50.389Z,-5.67
2023-01-13T03:33:26.417Z,-5.64
2023-01-13T03:35:56.687Z,-5.59
2023-01-13T03:38:35.937Z,-5.43
2023-01-13T03:41:09.151Z,-5.59
2023-01-13T03:43:59.852Z,-5.44
2023-01-13T03:47:11.498Z,-5.37
2023-01-13T03:49:53.497Z,-5.32
2023-01-13T03:52:33.600Z,-5.19
2023-01-13T03:55:18.778Z,-5.18
2023-01-13T03:57:55.941Z,-5.13
2023-01-13T04:00:26.406Z,-5.23
2023-01-13T04:03:27.195Z,-5.53
2023-01-13T04:05:58.830Z,-5.12
2023-01-13T04:08:27.884Z,-5.13
2023-01-13T04:11:00.674Z,-5.01
2023-01-13T04:13:31.019Z,-4.95
2023-01-13T04:15:57.926Z,-5.02
2023-01-13T04:18:26.630Z,-5.10
2023-01-13T04:20:54.805Z,-5.04
2023-01-13T04:23:22.233Z,-5.04
2023-01-13T04:25:49.762Z,-5.12
2023-01-13T04:28:17.055Z,-5.06
2023-01-13T04:30:44.561Z,-4.98
2023-01-13T04:33:11.861Z,-4.98
2023-01-13T04:35:38.762Z,-4.92
2023-01-13T04:38:11.887Z,-4.97
2023-01-13T04:40:39.127Z,-4.99
2023-01-13T04:43:06.370Z,-5.14
2023-01-13T04:45:33.426Z,-5.02
2023-01-13T04:48:00.493Z,-5.07
2023-01-13T04:50:27.401Z,-5.07
2023-01-13T04:52:54.919Z,-5.15
2023-01-13T04:55:23.386Z,-5.14
2023-01-13T04:57:50.220Z,-4.95
2023-01-13T05:00:19.482Z,-5.01
2023-01-13T05:02:46.132Z,-4.99
2023-01-13T05:05:12.876Z,-5.15
2023-01-13T05:07:39.486Z,-5.17
2023-01-13T05:10:06.403Z,-4.99
2023-01-13T05:12:52.038Z,-4.98
2023-01-13T05:15:37.077Z,-4.98
2023-01-13T05:18:04.270Z,-5.03
2023-01-13T05:20:31.072Z,-5.06
2023-01-13T05:23:16.418Z,-5.19
2023-01-13T05:25:44.543Z,-5.17
2023-01-13T05:28:11.813Z,-5.08
2023-01-13T05:30:46.052Z,-5.06
2023-01-13T05:33:14.803Z,-5.04
2023-01-13T05:35:43.071Z,-5.06
2023-01-13T05:38:09.764Z,-5.16
2023-01-13T05:40:57.752Z,-5.11
2023-01-13T05:43:25.543Z,-5.18
2023-01-13T05:46:01.540Z,-5.02
2023-01-13T05:48:37.230Z,-4.97
2023-01-13T05:51:06.141Z,-4.98
2023-01-13T05:53:33.532Z,-4.84
2023-01-13T05:56:00.389Z,-4.82
2023-01-13T05:58:28.204Z,-4.79
2023-01-13T06:01:03.627Z,-4.80
2023-01-13T06:03:30.212Z,-4.87
2023-01-13T06:05:59.530Z,-4.70
2023-01-13T06:08:26.637Z,-4.76
2023-01-13T06:10:53.324Z,-4.75
2023-01-13T06:13:20.087Z,-4.82
2023-01-13T06:15:46.820Z,-4.76
2023-01-13T06:18:13.565Z,-4.74
2023-01-13T06:20:40.181Z,-4.72
2023-01-13T06:23:09.512Z,-4.83
2023-01-13T06:26:06.048Z,-4.91
2023-01-13T06:28:33.516Z,-4.70
2023-01-13T06:31:02.146Z,-4.65
2023-01-13T06:33:40.027Z,-4.62
2023-01-13T06:36:22.254Z,-4.64
2023-01-13T06:38:52.045Z,-4.66
2023-01-13T06:41:39.380Z,-4.64
2023-01-13T06:44:06.102Z,-4.72
2023-01-13T06:46:33.181Z,-4.54
2023-01-13T06:48:59.958Z,-4.46
2023-01-13T06:51:26.593Z,-4.44
2023-01-13T06:53:53.276Z,-4.53
2023-01-13T06:56:19.917Z,-4.48
2023-01-13T06:58:46.500Z,-4.45
2023-01-13T07:01:13.335Z,-4.42
2023-01-13T07:03:40.843Z,-4.43
2023-01-13T07:06:08.263Z,-4.41
2023-01-13T07:08:35.044Z,-4.33
2023-01-13T07:11:02.801Z,-4.27
2023-01-13T07:13:48.413Z,-4.09
2023-01-13T07:16:15.233Z,-4.11
2023-01-13T07:18:42.037Z,-4.07
2023-01-13T07:21:11.021Z,-4.08
2023-01-13T07:23:41.815Z,-4.10
2023-01-13T07:26:09.804Z,-4.16
2023-01-13T07:28:37.218Z,-4.15
2023-01-13T07:31:04.150Z,-4.19
2023-01-13T07:33:33.642Z,-4.39
2023-01-13T07:36:04.713Z,-4.04
2023-01-13T07:38:33.199Z,-4.12
2023-01-13T07:41:19.990Z,-3.96
2023-01-13T07:43:46.812Z,-3.78
2023-01-13T07:46:13.937Z,-3.77
2023-01-13T07:48:40.755Z,-3.74
2023-01-13T07:51:09.546Z,-3.93
2023-01-13T07:53:36.784Z,-3.74
2023-01-13T07:56:05.195Z,-3.82
2023-01-13T07:58:33.278Z,-3.61
2023-01-13T08:01:00.182Z,-3.61
2023-01-13T08:03:27.499Z,-3.71
2023-01-13T08:05:54.443Z,-3.50
2023-01-13T08:08:21.201Z,-3.65
2023-01-13T08:10:48.065Z,-3.71
2023-01-13T08:13:22.075Z,-3.66
2023-01-13T08:15:51.381Z,-3.99
2023-01-13T08:18:21.376Z,-3.93
2023-01-13T08:20:55.033Z,-3.66
2023-01-13T08:23:22.948Z,-3.43
2023-01-13T08:25:50.854Z,-3.48
2023-01-13T08:28:17.946Z,-3.50
2023-01-13T08:30:44.957Z,-3.50
2023-01-13T08:33:12.802Z,-3.40
2023-01-13T08:35:40.648Z,-3.26
2023-01-13T08:38:08.174Z,-3.55
2023-01-13T08:40:35.350Z,-3.67
2023-01-13T08:43:02.242Z,-3.48
2023-01-13T08:45:28.955Z,-3.53
2023-01-13T08:47:55.632Z,-3.25
2023-01-13T08:50:22.483Z,-3.13
2023-01-13T08:52:49.285Z,-2.99
2023-01-13T08:55:16.255Z,-3.16
2023-01-13T08:57:43.134Z,-3.43
2023-01-13T09:00:10.755Z,-3.15
2023-01-13T09:02:38.699Z,-3.21
2023-01-13T09:05:09.647Z,-3.41
2023-01-13T09:07:41.066Z,-3.14
2023-01-13T09:10:08.684Z,-2.78
2023-01-13T09:12:54.444Z,-2.84
2023-01-13T09:15:21.939Z,-2.72
2023-01-13T09:17:48.663Z,-2.81
2023-01-13T09:20:15.580Z,-2.65
2023-01-13T09:22:42.320Z,-2.67
2023-01-13T09:25:09.508Z,-3.11
2023-01-13T09:27:36.285Z,-2.87
2023-01-13T09:30:03.274Z,-2.69
2023-01-13T09:32:30.054Z,-2.78
2023-01-13T09:35:03.061Z,-2.88
2023-01-13T09:37:37.939Z,-2.86
2023-01-13T09:40:11.587Z,-3.05
2023-01-13T09:43:13.677Z,-2.76
2023-01-13T09:46:48.900Z,-2.88
2023-01-13T09:49:22.200Z,-2.79
2023-01-13T09:51:56.026Z,-2.42
2023-01-13T09:54:32.429Z,-2.51
2023-01-13T09:56:59.688Z,-2.82
2023-01-13T09:59:29.808Z,-3.00
2023-01-13T10:02:07.498Z,-2.70
2023-01-13T10:04:34.327Z,-2.58
2023-01-13T10:07:03.814Z,-2.75
2023-01-13T10:09:45.163Z,-3.07
2023-01-13T10:12:47.429Z,-2.93
2023-01-13T10:15:16.734Z,-2.64
2023-01-13T10:17:51.143Z,-2.51
2023-01-13T10:20:34.005Z,-2.49
2023-01-13T10:23:25.720Z,-2.40
2023-01-13T10:26:08.267Z,-2.59
2023-01-13T10:28:35.008Z,-2.91
2023-01-13T10:31:09.964Z,-3.12
2023-01-13T10:33:36.720Z,-2.86
2023-01-13T10:36:16.778Z,-3.40
2023-01-13T10:38:48.574Z,-2.78
2023-01-13T10:41:15.238Z,-2.47
2023-01-13T10:43:52.009Z,-2.84
2023-01-13T10:46:20.653Z,-2.99
2023-01-13T10:48:59.128Z,-2.70
2023-01-13T10:51:43.894Z,-2.83
2023-01-13T10:54:13.600Z,-3.12
2023-01-13T10:56:42.643Z,-2.91
2023-01-13T10:59:09.430Z,-2.83
2023-01-13T11:01:37.215Z,-2.27
2023-01-13T11:04:24.911Z,-2.43
2023-01-13T11:06:51.634Z,-1.87
2023-01-13T11:09:20.504Z,-2.32
2023-01-13T11:11:48.783Z,-2.40
2023-01-13T11:14:33.584Z,-2.64
2023-01-13T11:17:17.156Z,-2.89
2023-01-13T11:19:55.762Z,-2.49
2023-01-13T11:22:29.793Z,-2.31
2023-01-13T11:25:00.044Z,-2.26
2023-01-13T11:27:39.174Z,-2.50
2023-01-13T11:30:39.860Z,-2.34
2023-01-13T11:33:11.738Z,-2.07
2023-01-13T11:36:09.887Z,-2.80
2023-01-13T11:39:20.822Z,-3.49
2023-01-13T11:42:18.973Z,-2.46
2023-01-13T11:44:59.041Z,-2.26
2023-01-13T11:47:26.972Z,-2.35
2023-01-13T11:49:53.970Z,-2.95
2023-01-13T11:52:37.913Z,-2.83
2023-01-13T11:55:49.444Z,-2.64
2023-01-13T11:58:45.593Z,-2.67
2023-01-13T12:01:38.370Z,-2.60
2023-01-13T12:04:27.760Z,-2.87
2023-01-13T12:07:15.000Z,-2.42
2023-01-13T12:09:56.337Z,-2.94
2023-01-13T12:12:27.943Z,-2.36
2023-01-13T12:14:54.543Z,-2.45
2023-01-13T12:17:44.200Z,-2.47
2023-01-13T12:20:42.668Z,-2.53
2023-01-13T12:23:47.926Z,-3.11
2023-01-13T12:26:20.011Z,-2.87
2023-01-13T12:29:15.403Z,-2.94
2023-01-13T12:31:43.846Z,-3.06
2023-01-13T12:34:31.258Z,-2.84
2023-01-13T12:37:08.923Z,-3.00
2023-01-13T12:40:19.533Z,-2.90
2023-01-13T12:43:28.207Z,-2.80
2023-01-13T12:46:23.567Z,-3.13
2023-01-13T12:49:13.479Z,-3.06
2023-01-13T12:52:10.573Z,-2.85
2023-01-13T12:54:37.155Z,-2.79
2023-01-13T12:57:22.834Z,-3.09
2023-01-13T13:00:14.314Z,-2.69
2023-01-13T13:02:43.551Z,-3.08
2023-01-13T13:05:22.713Z,-2.86
2023-01-13T13:07:52.764Z,-2.81
2023-01-13T13:10:30.929Z,-2.87
2023-01-13T13:13:34.339Z,-2.72
2023-01-13T13:16:26.247Z,-2.87
2023-01-13T13:18:53.868Z,-3.08
2023-01-13T13:21:20.702Z,-3.02
2023-01-13T13:23:53.691Z,-2.84
2023-01-13T13:26:20.453Z,-2.88
2023-01-13T13:29:14.633Z,-3.01
2023-01-13T13:31:41.275Z,-2.89
2023-01-13T13:34:32.476Z,-2.82
2023-01-13T13:37:02.099Z,-2.90
2023-01-13T13:39:51.832Z,-2.89
2023-01-13T13:42:40.839Z,-3.17
2023-01-13T13:45:39.974Z,-3.06
2023-01-13T13:48:30.990Z,-3.20
2023-01-13T13:51:04.171Z,-3.00
2023-01-13T13:53:36.512Z,-3.12
2023-01-13T13:56:14.405Z,-3.33
2023-01-13T13:58:41.215Z,-3.33
2023-01-13T14:01:08.328Z,-3.04
2023-01-13T14:03:39.011Z,-3.06
2023-01-13T14:06:10.125Z,-3.01
2023-01-13T14:08:38.771Z,-2.93
2023-01-13T14:11:28.222Z,-2.99
2023-01-13T14:14:03.641Z,-3.18
2023-01-13T14:16:30.150Z,-3.02
2023-01-13T14:18:57.075Z,-3.07
2023-01-13T14:21:30.139Z,-3.09
2023-01-13T14:24:13.160Z,-3.02
2023-01-13T14:26:40.151Z,-3.02
2023-01-13T14:29:09.202Z,-3.12
2023-01-13T14:31:37.390Z,-2.96
2023-01-13T14:34:32.553Z,-3.20
2023-01-13T14:36:55.242Z,-3.04
2023-01-13T14:39:32.511Z,-3.04
2023-01-13T14:41:59.517Z,-3.11
2023-01-13T14:44:46.407Z,-3.02
2023-01-13T14:47:27.059Z,-3.25
2023-01-13T14:50:02.381Z,-3.41
2023-01-13T14:52:38.407Z,-3.28
2023-01-13T14:55:11.192Z,-3.06
2023-01-13T14:57:39.844Z,-3.05
2023-01-13T15:00:21.401Z,-3.10
2023-01-13T15:02:57.463Z,-3.18
2023-01-13T15:05:29.404Z,-3.22
2023-01-13T15:08:05.746Z,-3.01
2023-01-13T15:10:33.319Z,-3.10
2023-01-13T15:13:02.238Z,-3.11
2023-01-13T15:15:37.298Z,-3.18
2023-01-13T15:18:15.846Z,-2.94
2023-01-13T15:20:43.187Z,-3.15
2023-01-13T15:23:10.333Z,-3.04
2023-01-13T15:25:42.123Z,-3.23
2023-01-13T15:28:19.626Z,-3.08
2023-01-13T15:30:47.199Z,-3.36
2023-01-13T15:33:14.647Z,-3.40
2023-01-13T15:35:44.585Z,-3.43
2023-01-13T15:38:17.081Z,-3.21
2023-01-13T15:40:44.215Z,-3.18
2023-01-13T15:43:34.812Z,-3.24
2023-01-13T15:46:20.026Z,-3.23
2023-01-13T15:48:46.942Z,-3.20
2023-01-13T15:51:21.536Z,-3.44
2023-01-13T15:53:49.366Z,-3.42
2023-01-13T15:56:24.867Z,-3.44
2023-01-13T15:58:51.925Z,-3.22
2023-01-13T16:01:24.633Z,-3.44
2023-01-13T16:03:52.352Z,-3.57
2023-01-13T16:06:22.008Z,-3.33
2023-01-13T16:08:48.693Z,-3.26
2023-01-13T16:11:15.522Z,-3.25
2023-01-13T16:13:42.556Z,-3.42
2023-01-13T16:16:25.344Z,-3.52
2023-01-13T16:18:52.708Z,-3.36
2023-01-13T16:21:21.101Z,-3.36
2023-01-13T16:23:49.227Z,-3.34
2023-01-13T16:26:27.563Z,-3.36
2023-01-13T16:28:55.815Z,-3.29
2023-01-13T16:31:25.417Z,-3.21
2023-01-13T16:33:52.422Z,-3.23
2023-01-13T16:36:21.004Z,-3.27
2023-01-13T16:38:48.834Z,-3.41
2023-01-13T16:41:15.807Z,-3.44
2023-01-13T16:43:42.652Z,-3.34
2023-01-13T16:46:28.496Z,-3.55
2023-01-13T16:48:56.083Z,-3.40
2023-01-13T16:51:24.235Z,-3.44
2023-01-13T16:53:51.275Z,-3.38
2023-01-13T16:56:19.560Z,-3.47
2023-01-13T16:58:47.499Z,-3.49
2023-01-13T17:01:34.847Z,-3.33
2023-01-13T17:04:01.704Z,-3.49
2023-01-13T17:06:33.624Z,-3.58
2023-01-13T17:09:05.217Z,-3.33
2023-01-13T17:11:32.082Z,-3.41
2023-01-13T17:13:59.830Z,-3.49
2023-01-13T17:16:26.608Z,-3.61
2023-01-13T17:18:54.457Z,-3.58
2023-01-13T17:21:21.215Z,-3.58
2023-01-13T17:23:48.168Z,-3.54
2023-01-13T17:26:44.191Z,-3.68
2023-01-13T17:29:16.250Z,-3.43
2023-01-13T17:31:43.009Z,-3.48
2023-01-13T17:34:11.126Z,-3.35
2023-01-13T17:36:37.932Z,-3.38
2023-01-13T17:39:04.891Z,-3.26
2023-01-13T17:41:31.812Z,-3.23
2023-01-13T17:43:58.605Z,-3.35
2023-01-13T17:46:25.276Z,-3.69
2023-01-13T17:48:53.000Z,-3.43
2023-01-13T17:51:20.784Z,-3.42
2023-01-13T17:53:48.298Z,-3.31
2023-01-13T17:56:15.859Z,-3.34
2023-01-13T17:58:42.984Z,-3.39
2023-01-13T18:01:15.163Z,-3.23
2023-01-13T18:03:42.126Z,-3.26
2023-01-13T18:06:35.158Z,-3.32
2023-01-13T18:09:01.985Z,-3.35
2023-01-13T18:11:29.077Z,-3.38
2023-01-13T18:13:58.898Z,-3.25
2023-01-13T18:16:27.333Z,-3.40
2023-01-13T18:19:16.693Z,-3.50
2023-01-13T18:22:02.008Z,-3.48
2023-01-13T18:24:48.035Z,-3.37
2023-01-13T18:27:19.471Z,-3.36
2023-01-13T18:29:46.878Z,-3.34
2023-01-13T18:32:14.570Z,-3.27
2023-01-13T18:34:41.773Z,-3.41
2023-01-13T18:37:10.308Z,-3.68
2023-01-13T18:39:37.806Z,-3.59
2023-01-13T18:42:27.322Z,-3.43
2023-01-13T18:44:56.147Z,-3.44
2023-01-13T18:47:28.582Z,-3.46
2023-01-13T18:49:56.927Z,-3.46
2023-01-13T18:52:24.537Z,-3.45
2023-01-13T18:54:51.350Z,-3.44
2023-01-13T18:57:18.344Z,-3.55
2023-01-13T18:59:45.107Z,-3.76
2023-01-13T19:02:20.164Z,-3.45
2023-01-13T19:04:47.421Z,-3.48
2023-01-13T19:07:22.067Z,-3.61
2023-01-13T19:10:09.778Z,-3.50
2023-01-13T19:12:36.809Z,-3.51
2023-01-13T19:15:03.811Z,-3.60
2023-01-13T19:17:35.174Z,-3.51
2023-01-13T19:20:02.310Z,-3.67
2023-01-13T19:22:31.087Z,-3.69
2023-01-13T19:24:58.783Z,-3.60
2023-01-13T19:27:27.587Z,-3.58
2023-01-13T19:29:58.220Z,-3.67
2023-01-13T19:32:25.116Z,-3.58
2023-01-13T19:34:52.104Z,-3.66
2023-01-13T19:37:19.727Z,-3.82
2023-01-13T19:39:46.535Z,-3.90
2023-01-13T19:42:32.287Z,-3.64
2023-01-13T19:45:17.505Z,-3.59
2023-01-13T19:47:45.836Z,-3.93
2023-01-13T19:50:13.855Z,-3.83
2023-01-13T19:52:41.874Z,-3.77
2023-01-13T19:55:12.498Z,-3.76
2023-01-13T19:57:40.475Z,-3.71
2023-01-13T20:00:09.128Z,-3.63
2023-01-13T20:02:39.338Z,-3.56
2023-01-13T20:05:07.979Z,-3.59
2023-01-13T20:07:35.344Z,-3.61
2023-01-13T20:10:02.768Z,-3.56
2023-01-13T20:12:31.892Z,-3.49
2023-01-13T20:14:58.604Z,-3.57
2023-01-13T20:17:30.176Z,-3.45
2023-01-13T20:19:59.121Z,-3.46
2023-01-13T20:22:27.608Z,-3.54
2023-01-13T20:24:55.430Z,-3.50
2023-01-13T20:27:23.863Z,-3.54
2023-01-13T20:29:51.314Z,-3.69
2023-01-13T20:32:18.089Z,-3.71
2023-01-13T20:34:48.114Z,-3.85
2023-01-13T20:37:14.748Z,-3.88
2023-01-13T20:39:45.239Z,-3.71
2023-01-13T20:42:33.057Z,-3.73
2023-01-13T20:45:00.814Z,-3.62
2023-01-13T20:47:29.083Z,-3.55
2023-01-13T20:49:55.939Z,-3.52
2023-01-13T20:52:23.192Z,-3.60
2023-01-13T20:54:50.562Z,-3.67
2023-01-13T20:57:22.665Z,-3.84
2023-01-13T20:59:49.446Z,-3.65
2023-01-13T21:02:16.679Z,-3.71
2023-01-13T21:04:43.865Z,-3.61
2023-01-13T21:07:11.437Z,-3.81
2023-01-13T21:09:38.309Z,-3.82
2023-01-13T21:12:24.458Z,-3.65
2023-01-13T21:15:09.877Z,-3.74
2023-01-13T21:17:55.189Z,-3.71
2023-01-13T21:20:21.883Z,-3.80
2023-01-13T21:22:49.256Z,-4.21
2023-01-13T21:25:17.165Z,-3.86
2023-01-13T21:27:46.493Z,-3.73
2023-01-13T21:30:15.103Z,-3.61
2023-01-13T21:32:43.248Z,-3.62
2023-01-13T21:35:10.438Z,-3.63
2023-01-13T21:37:38.273Z,-3.71
2023-01-13T21:40:06.863Z,-3.81
2023-01-13T21:42:52.241Z,-3.98
2023-01-13T21:45:37.643Z,-3.67
2023-01-13T21:48:04.570Z,-3.78
2023-01-13T21:50:31.259Z,-3.73
2023-01-13T21:52:58.703Z,-3.67
2023-01-13T21:55:29.593Z,-3.58
2023-01-13T21:57:59.155Z,-3.69
2023-01-13T22:00:28.030Z,-3.76
2023-01-13T22:02:55.081Z,-3.95
2023-01-13T22:05:23.830Z,-3.77
2023-01-13T22:07:51.089Z,-3.84
2023-01-13T22:10:20.166Z,-3.72
2023-01-13T22:12:48.074Z,-3.70
2023-01-13T22:15:16.474Z,-3.59
2023-01-13T22:17:43.273Z,-3.57
2023-01-13T22:20:11.253Z,-3.56
2023-01-13T22:22:38.694Z,-3.76
2023-01-13T22:25:08.288Z,-3.68
2023-01-13T22:27:46.795Z,-3.87
2023-01-13T22:30:19.049Z,-3.73
2023-01-13T22:32:46.286Z,-3.87
2023-01-13T22:35:14.605Z,-3.63
2023-01-13T22:37:41.926Z,-3.62
2023-01-13T22:40:11.257Z,-3.63
2023-01-13T22:42:39.209Z,-3.57
2023-01-13T22:45:07.993Z,-3.68
2023-01-13T22:47:35.637Z,-3.52
2023-01-13T22:50:02.522Z,-3.56
2023-01-13T22:52:30.360Z,-3.57
2023-01-13T22:54:57.470Z,-3.80
2023-01-13T22:57:24.219Z,-3.66
2023-01-13T22:59:51.070Z,-3.66
2023-01-13T23:02:17.807Z,-3.63
2023-01-13T23:04:44.690Z,-3.63
2023-01-13T23:07:14.003Z,-3.66
2023-01-13T23:09:40.793Z,-3.48
2023-01-13T23:12:07.412Z,-3.52
2023-01-13T23:14:34.234Z,-3.69
2023-01-13T23:17:01.168Z,-3.57
2023-01-13T23:19:28.067Z,-3.62
2023-01-13T23:21:54.880Z,-3.42
2023-01-13T23:24:25.957Z,-3.49
2023-01-13T23:26:52.730Z,-3.59
2023-01-13T23:29:19.539Z,-3.55
2023-01-13T23:31:46.259Z,-3.80
2023-01-13T23:34:13.102Z,-3.68
2023-01-13T23:36:41.804Z,-3.77
2023-01-13T23:39:08.505Z,-3.74
2023-01-13T23:41:48.930Z,-3.79
2023-01-13T23:44:15.621Z,-4.02
2023-01-13T23:46:42.522Z,-3.79
2023-01-13T23:49:09.158Z,-3.80
2023-01-13T23:51:35.927Z,-3.68
2023-01-13T23:54:02.544Z,-3.85
2023-01-13T23:56:31.714Z,-3.80
2023-01-13T23:58:59.035Z,-3.76
